createdAt,value
2022-08-22T11:03:49.907Z,58.92
2022-08-22T11:06:25.997Z,57.02
2022-08-22T11:09:21.778Z,58.45
2022-08-22T11:12:07.876Z,57.92
2022-08-22T11:14:47.695Z,60.60
2022-08-22T11:17:30.283Z,59.23
2022-08-22T11:20:19.727Z,57.01
2022-08-22T11:22:51.568Z,56.37
2022-08-22T11:25:52.419Z,54.44
2022-08-22T11:28:36.992Z,55.40
2022-08-22T11:31:16.499Z,52.68
2022-08-22T11:33:58.954Z,53.60
2022-08-22T11:36:27.827Z,56.13
2022-08-22T11:39:02.558Z,57.81
2022-08-22T11:41:59.714Z,58.35
2022-08-22T11:44:54.004Z,55.98
2022-08-22T11:47:31.224Z,55.75
2022-08-22T11:49:58.887Z,57.70
2022-08-22T11:52:51.752Z,53.62
2022-08-22T11:55:34.533Z,52.49
2022-08-22T11:58:29.207Z,52.35
2022-08-22T12:00:56.757Z,52.58
2022-08-22T12:03:43.593Z,52.06
2022-08-22T12:06:50.654Z,51.75
2022-08-22T12:09:21.132Z,51.90
2022-08-22T12:12:01.395Z,51.80
2022-08-22T12:14:42.893Z,51.54
2022-08-22T12:17:33.537Z,51.15
2022-08-22T12:20:17.445Z,51.72
2022-08-22T12:23:02.035Z,50.74
2022-08-22T12:25:44.834Z,51.77
2022-08-22T12:28:24.741Z,51.53
2022-08-22T12:31:11.102Z,48.75
2022-08-22T12:34:03.448Z,50.49
2022-08-22T12:36:51.712Z,48.65
2022-08-22T12:39:53.230Z,48.24
2022-08-22T12:42:28.204Z,48.31
2022-08-22T12:45:07.691Z,49.26
2022-08-22T12:48:00.349Z,48.59
2022-08-22T12:50:41.504Z,49.62
2022-08-22T12:53:37.535Z,48.53
2022-08-22T12:56:05.781Z,47.29
2022-08-22T12:59:22.522Z,48.69
2022-08-22T13:01:55.098Z,46.29
2022-08-22T13:04:32.642Z,46.72
2022-08-22T13:07:18.991Z,48.02
2022-08-22T13:09:58.743Z,45.13
2022-08-22T13:12:39.925Z,47.81
2022-08-22T13:15:20.752Z,46.16
2022-08-22T13:17:54.556Z,47.61
